sensor_id;sensor_type;location;lat;lon;timestamp;temperature;humidity
31733;DHT22;18312;51.486;7.144;2022-09-09T00:01:36;14.50;99.90
31733;DHT22;18312;51.486;7.144;2022-09-09T00:04:05;14.50;99.90
31733;DHT22;18312;51.486;7.144;2022-09-09T00:06:43;14.50;99.90
31733;DHT22;18312;51.486;7.144;2022-09-09T00:09:11;14.50;99.90
31733;DHT22;18312;51.486;7.144;2022-09-09T00:11:41;14.60;99.90
31733;DHT22;18312;51.486;7.144;2022-09-09T00:14:11;14.50;99.90
31733;DHT22;18312;51.486;7.144;2022-09-09T00:16:40;14.60;99.90
31733;DHT22;18312;51.486;7.144;2022-09-09T00:19:14;14.60;99.90
31733;DHT22;18312;51.486;7.144;2022-09-09T00:21:46;14.60;99.90
31733;DHT22;18312;51.486;7.144;2022-09-09T00:24:16;14.70;99.90
31733;DHT22;18312;51.486;7.144;2022-09-09T00:26:48;14.60;99.90
31733;DHT22;18312;51.486;7.144;2022-09-09T00:29:18;14.60;99.90
31733;DHT22;18312;51.486;7.144;2022-09-09T00:31:45;14.60;99.90
31733;DHT22;18312;51.486;7.144;2022-09-09T00:34:13;14.60;99.90
31733;DHT22;18312;51.486;7.144;2022-09-09T00:36:41;14.60;99.90
31733;DHT22;18312;51.486;7.144;2022-09-09T00:39:09;14.50;99.90
31733;DHT22;18312;51.486;7.144;2022-09-09T00:41:42;14.50;99.90
31733;DHT22;18312;51.486;7.144;2022-09-09T00:44:17;14.40;99.90
31733;DHT22;18312;51.486;7.144;2022-09-09T00:46:52;14.50;99.90
31733;DHT22;18312;51.486;7.144;2022-09-09T00:49:22;14.40;99.90
31733;DHT22;18312;51.486;7.144;2022-09-09T00:51:57;14.30;99.90
31733;DHT22;18312;51.486;7.144;2022-09-09T00:54:31;14.30;99.90
31733;DHT22;18312;51.486;7.144;2022-09-09T00:57:03;14.30;99.90
31733;DHT22;18312;51.486;7.144;2022-09-09T00:59:39;14.20;99.90
31733;DHT22;18312;51.486;7.144;2022-09-09T01:02:13;14.20;99.90
31733;DHT22;18312;51.486;7.144;2022-09-09T01:04:42;14.30;99.90
31733;DHT22;18312;51.486;7.144;2022-09-09T01:07:11;14.20;99.90
31733;DHT22;18312;51.486;7.144;2022-09-09T01:09:42;14.30;99.90
31733;DHT22;18312;51.486;7.144;2022-09-09T01:12:13;14.40;99.90
31733;DHT22;18312;51.486;7.144;2022-09-09T01:14:44;14.40;99.90
31733;DHT22;18312;51.486;7.144;2022-09-09T01:17:14;14.40;99.90
31733;DHT22;18312;51.486;7.144;2022-09-09T01:19:47;14.40;99.90
31733;DHT22;18312;51.486;7.144;2022-09-09T01:22:19;14.40;99.90
31733;DHT22;18312;51.486;7.144;2022-09-09T01:25:01;14.40;99.90
31733;DHT22;18312;51.486;7.144;2022-09-09T01:27:32;14.40;99.90
31733;DHT22;18312;51.486;7.144;2022-09-09T01:30:00;14.30;99.90
31733;DHT22;18312;51.486;7.144;2022-09-09T01:32:40;14.30;99.90
31733;DHT22;18312;51.486;7.144;2022-09-09T01:35:08;14.40;99.90
31733;DHT22;18312;51.486;7.144;2022-09-09T01:37:37;14.30;99.90
31733;DHT22;18312;51.486;7.144;2022-09-09T01:40:04;14.30;99.90
31733;DHT22;18312;51.486;7.144;2022-09-09T01:42:37;14.30;99.90
31733;DHT22;18312;51.486;7.144;2022-09-09T01:45:04;14.30;99.90
31733;DHT22;18312;51.486;7.144;2022-09-09T01:47:30;14.30;99.90
31733;DHT22;18312;51.486;7.144;2022-09-09T01:49:57;14.30;99.90
31733;DHT22;18312;51.486;7.144;2022-09-09T01:52:24;14.40;99.90
31733;DHT22;18312;51.486;7.144;2022-09-09T01:54:51;14.50;99.90
31733;DHT22;18312;51.486;7.144;2022-09-09T01:57:18;14.50;99.90
31733;DHT22;18312;51.486;7.144;2022-09-09T01:59:53;14.60;99.90
31733;DHT22;18312;51.486;7.144;2022-09-09T02:02:25;14.60;99.90
31733;DHT22;18312;51.486;7.144;2022-09-09T02:04:54;14.60;99.90
31733;DHT22;18312;51.486;7.144;2022-09-09T02:07:28;14.60;99.90
31733;DHT22;18312;51.486;7.144;2022-09-09T02:10:10;14.50;99.90
31733;DHT22;18312;51.486;7.144;2022-09-09T02:12:39;14.50;99.90
31733;DHT22;18312;51.486;7.144;2022-09-09T02:15:11;14.50;99.90
31733;DHT22;18312;51.486;7.144;2022-09-09T02:17:42;14.40;99.90
31733;DHT22;18312;51.486;7.144;2022-09-09T02:20:10;14.50;99.90
31733;DHT22;18312;51.486;7.144;2022-09-09T02:22:38;14.40;99.90
31733;DHT22;18312;51.486;7.144;2022-09-09T02:25:06;14.40;99.90
31733;DHT22;18312;51.486;7.144;2022-09-09T02:27:34;14.40;99.90
31733;DHT22;18312;51.486;7.144;2022-09-09T02:30:01;14.30;99.90
31733;DHT22;18312;51.486;7.144;2022-09-09T02:32:30;14.30;99.90
31733;DHT22;18312;51.486;7.144;2022-09-09T02:34:59;14.40;99.90
31733;DHT22;18312;51.486;7.144;2022-09-09T02:37:27;14.40;99.90
31733;DHT22;18312;51.486;7.144;2022-09-09T02:39:57;14.40;99.90
31733;DHT22;18312;51.486;7.144;2022-09-09T02:42:23;14.40;99.90
31733;DHT22;18312;51.486;7.144;2022-09-09T02:44:50;14.50;99.90
31733;DHT22;18312;51.486;7.144;2022-09-09T02:47:20;14.60;99.90
31733;DHT22;18312;51.486;7.144;2022-09-09T02:49:55;14.70;99.90
31733;DHT22;18312;51.486;7.144;2022-09-09T02:52:26;14.70;99.90
31733;DHT22;18312;51.486;7.144;2022-09-09T02:54:54;14.70;99.90
31733;DHT22;18312;51.486;7.144;2022-09-09T02:57:22;14.80;99.90
31733;DHT22;18312;51.486;7.144;2022-09-09T02:59:49;14.80;99.90
31733;DHT22;18312;51.486;7.144;2022-09-09T03:02:17;14.80;99.90
31733;DHT22;18312;51.486;7.144;2022-09-09T03:04:44;14.80;99.90
31733;DHT22;18312;51.486;7.144;2022-09-09T03:07:17;14.80;99.90
31733;DHT22;18312;51.486;7.144;2022-09-09T03:09:44;14.90;99.90
31733;DHT22;18312;51.486;7.144;2022-09-09T03:12:14;14.90;99.90
31733;DHT22;18312;51.486;7.144;2022-09-09T03:14:42;14.90;99.90
31733;DHT22;18312;51.486;7.144;2022-09-09T03:17:10;15.00;99.90
31733;DHT22;18312;51.486;7.144;2022-09-09T03:19:37;15.00;99.90
31733;DHT22;18312;51.486;7.144;2022-09-09T03:22:04;15.00;99.90
31733;DHT22;18312;51.486;7.144;2022-09-09T03:24:32;15.00;99.90
31733;DHT22;18312;51.486;7.144;2022-09-09T03:26:59;15.00;99.90
31733;DHT22;18312;51.486;7.144;2022-09-09T03:29:25;15.00;99.90
31733;DHT22;18312;51.486;7.144;2022-09-09T03:31:52;15.00;99.90
31733;DHT22;18312;51.486;7.144;2022-09-09T03:34:18;15.00;99.90
31733;DHT22;18312;51.486;7.144;2022-09-09T03:36:45;15.00;99.90
31733;DHT22;18312;51.486;7.144;2022-09-09T03:39:13;14.90;99.90
31733;DHT22;18312;51.486;7.144;2022-09-09T03:41:42;14.90;99.90
31733;DHT22;18312;51.486;7.144;2022-09-09T03:44:10;14.80;99.90
31733;DHT22;18312;51.486;7.144;2022-09-09T03:46:37;14.80;99.90
31733;DHT22;18312;51.486;7.144;2022-09-09T03:49:03;14.70;99.90
31733;DHT22;18312;51.486;7.144;2022-09-09T03:51:30;14.70;99.90
31733;DHT22;18312;51.486;7.144;2022-09-09T03:53:56;14.60;99.90
31733;DHT22;18312;51.486;7.144;2022-09-09T03:56:23;14.70;99.90
31733;DHT22;18312;51.486;7.144;2022-09-09T03:58:51;14.70;99.90
31733;DHT22;18312;51.486;7.144;2022-09-09T04:01:18;14.70;99.90
31733;DHT22;18312;51.486;7.144;2022-09-09T04:03:44;14.70;99.90
31733;DHT22;18312;51.486;7.144;2022-09-09T04:06:11;14.70;99.90
31733;DHT22;18312;51.486;7.144;2022-09-09T04:08:39;14.70;99.90
31733;DHT22;18312;51.486;7.144;2022-09-09T04:11:07;14.70;99.90
31733;DHT22;18312;51.486;7.144;2022-09-09T04:13:34;14.80;99.90
31733;DHT22;18312;51.486;7.144;2022-09-09T04:16:04;14.80;99.90
31733;DHT22;18312;51.486;7.144;2022-09-09T04:18:31;14.80;99.90
31733;DHT22;18312;51.486;7.144;2022-09-09T04:20:57;14.80;99.90
31733;DHT22;18312;51.486;7.144;2022-09-09T04:23:24;14.80;99.90
31733;DHT22;18312;51.486;7.144;2022-09-09T04:25:53;14.80;99.90
31733;DHT22;18312;51.486;7.144;2022-09-09T04:28:20;14.80;99.90
31733;DHT22;18312;51.486;7.144;2022-09-09T04:30:48;14.80;99.90
31733;DHT22;18312;51.486;7.144;2022-09-09T04:33:16;14.80;99.90
31733;DHT22;18312;51.486;7.144;2022-09-09T04:35:44;14.80;99.90
31733;DHT22;18312;51.486;7.144;2022-09-09T04:38:10;14.80;99.90
31733;DHT22;18312;51.486;7.144;2022-09-09T04:40:37;14.70;99.90
31733;DHT22;18312;51.486;7.144;2022-09-09T04:43:08;14.70;99.90
31733;DHT22;18312;51.486;7.144;2022-09-09T04:45:35;14.60;99.90
31733;DHT22;18312;51.486;7.144;2022-09-09T04:48:02;14.50;99.90
31733;DHT22;18312;51.486;7.144;2022-09-09T04:50:30;14.50;99.90
31733;DHT22;18312;51.486;7.144;2022-09-09T04:52:59;14.50;99.90
31733;DHT22;18312;51.486;7.144;2022-09-09T04:55:26;14.60;99.90
31733;DHT22;18312;51.486;7.144;2022-09-09T04:57:52;14.60;99.90
31733;DHT22;18312;51.486;7.144;2022-09-09T05:00:19;14.70;99.90
31733;DHT22;18312;51.486;7.144;2022-09-09T05:02:46;14.80;99.90
31733;DHT22;18312;51.486;7.144;2022-09-09T05:05:13;14.80;99.90
31733;DHT22;18312;51.486;7.144;2022-09-09T05:07:41;14.80;99.90
31733;DHT22;18312;51.486;7.144;2022-09-09T05:10:08;14.90;99.90
31733;DHT22;18312;51.486;7.144;2022-09-09T05:12:35;14.90;99.90
31733;DHT22;18312;51.486;7.144;2022-09-09T05:15:02;14.90;99.90
31733;DHT22;18312;51.486;7.144;2022-09-09T05:17:29;14.90;99.90
31733;DHT22;18312;51.486;7.144;2022-09-09T05:19:55;14.90;99.90
31733;DHT22;18312;51.486;7.144;2022-09-09T05:22:23;15.00;99.90
31733;DHT22;18312;51.486;7.144;2022-09-09T05:24:51;14.90;99.90
31733;DHT22;18312;51.486;7.144;2022-09-09T05:27:17;15.00;99.90
31733;DHT22;18312;51.486;7.144;2022-09-09T05:29:44;15.00;99.90
31733;DHT22;18312;51.486;7.144;2022-09-09T05:32:11;15.10;99.90
31733;DHT22;18312;51.486;7.144;2022-09-09T05:34:38;15.10;99.90
31733;DHT22;18312;51.486;7.144;2022-09-09T05:37:05;15.10;99.90
31733;DHT22;18312;51.486;7.144;2022-09-09T05:39:32;15.20;99.90
31733;DHT22;18312;51.486;7.144;2022-09-09T05:42:03;15.20;99.90
31733;DHT22;18312;51.486;7.144;2022-09-09T05:44:30;15.20;99.90
31733;DHT22;18312;51.486;7.144;2022-09-09T05:46:56;15.20;99.90
31733;DHT22;18312;51.486;7.144;2022-09-09T05:49:23;15.30;99.90
31733;DHT22;18312;51.486;7.144;2022-09-09T05:51:50;15.30;99.90
31733;DHT22;18312;51.486;7.144;2022-09-09T05:54:17;15.40;99.90
31733;DHT22;18312;51.486;7.144;2022-09-09T05:56:43;15.40;99.90
31733;DHT22;18312;51.486;7.144;2022-09-09T05:59:14;15.50;99.90
31733;DHT22;18312;51.486;7.144;2022-09-09T06:01:41;15.50;99.90
31733;DHT22;18312;51.486;7.144;2022-09-09T06:04:07;15.60;99.90
31733;DHT22;18312;51.486;7.144;2022-09-09T06:06:35;15.60;99.90
31733;DHT22;18312;51.486;7.144;2022-09-09T06:09:02;15.60;99.90
31733;DHT22;18312;51.486;7.144;2022-09-09T06:11:31;15.70;99.90
31733;DHT22;18312;51.486;7.144;2022-09-09T06:14:00;15.70;99.90
31733;DHT22;18312;51.486;7.144;2022-09-09T06:16:28;15.80;99.90
31733;DHT22;18312;51.486;7.144;2022-09-09T06:18:55;15.90;99.90
31733;DHT22;18312;51.486;7.144;2022-09-09T06:21:23;15.90;99.90
31733;DHT22;18312;51.486;7.144;2022-09-09T06:23:50;15.90;99.90
31733;DHT22;18312;51.486;7.144;2022-09-09T06:26:19;16.00;99.90
31733;DHT22;18312;51.486;7.144;2022-09-09T06:28:46;16.10;99.90
31733;DHT22;18312;51.486;7.144;2022-09-09T06:31:13;16.20;99.90
31733;DHT22;18312;51.486;7.144;2022-09-09T06:33:43;16.30;99.90
31733;DHT22;18312;51.486;7.144;2022-09-09T06:36:12;16.30;99.90
31733;DHT22;18312;51.486;7.144;2022-09-09T06:38:39;16.40;99.90
31733;DHT22;18312;51.486;7.144;2022-09-09T06:41:05;16.50;99.90
31733;DHT22;18312;51.486;7.144;2022-09-09T06:43:32;16.50;99.90
31733;DHT22;18312;51.486;7.144;2022-09-09T06:46:01;16.60;99.90
31733;DHT22;18312;51.486;7.144;2022-09-09T06:48:28;16.70;99.90
31733;DHT22;18312;51.486;7.144;2022-09-09T06:51:02;16.90;99.90
31733;DHT22;18312;51.486;7.144;2022-09-09T06:53:29;16.90;99.90
31733;DHT22;18312;51.486;7.144;2022-09-09T06:55:58;17.00;99.90
31733;DHT22;18312;51.486;7.144;2022-09-09T06:58:26;17.00;99.90
31733;DHT22;18312;51.486;7.144;2022-09-09T07:00:52;17.00;99.90
31733;DHT22;18312;51.486;7.144;2022-09-09T07:03:19;17.10;99.90
31733;DHT22;18312;51.486;7.144;2022-09-09T07:05:53;17.20;99.90
31733;DHT22;18312;51.486;7.144;2022-09-09T07:08:21;17.20;99.90
31733;DHT22;18312;51.486;7.144;2022-09-09T07:10:48;17.30;99.90
31733;DHT22;18312;51.486;7.144;2022-09-09T07:13:15;17.40;99.90
31733;DHT22;18312;51.486;7.144;2022-09-09T07:15:41;17.50;99.90
31733;DHT22;18312;51.486;7.144;2022-09-09T07:18:08;17.70;99.90
31733;DHT22;18312;51.486;7.144;2022-09-09T07:20:35;17.80;99.90
31733;DHT22;18312;51.486;7.144;2022-09-09T07:23:02;17.90;99.90
31733;DHT22;18312;51.486;7.144;2022-09-09T07:25:29;18.10;99.90
31733;DHT22;18312;51.486;7.144;2022-09-09T07:27:56;18.30;99.90
31733;DHT22;18312;51.486;7.144;2022-09-09T07:30:22;18.20;99.90
31733;DHT22;18312;51.486;7.144;2022-09-09T07:32:51;18.10;99.90
31733;DHT22;18312;51.486;7.144;2022-09-09T07:35:17;18.00;99.90
31733;DHT22;18312;51.486;7.144;2022-09-09T07:37:44;18.10;99.90
31733;DHT22;18312;51.486;7.144;2022-09-09T07:40:11;18.10;99.90
31733;DHT22;18312;51.486;7.144;2022-09-09T07:42:39;18.10;99.90
31733;DHT22;18312;51.486;7.144;2022-09-09T07:45:05;18.20;99.90
31733;DHT22;18312;51.486;7.144;2022-09-09T07:47:32;18.30;99.90
31733;DHT22;18312;51.486;7.144;2022-09-09T07:49:59;18.20;99.90
31733;DHT22;18312;51.486;7.144;2022-09-09T07:52:25;18.20;99.90
31733;DHT22;18312;51.486;7.144;2022-09-09T07:54:52;18.10;99.90
31733;DHT22;18312;51.486;7.144;2022-09-09T07:57:19;18.10;99.90
31733;DHT22;18312;51.486;7.144;2022-09-09T07:59:48;18.10;99.90
31733;DHT22;18312;51.486;7.144;2022-09-09T08:02:14;18.00;99.90
31733;DHT22;18312;51.486;7.144;2022-09-09T08:04:41;18.10;99.90
31733;DHT22;18312;51.486;7.144;2022-09-09T08:07:07;18.30;99.90
31733;DHT22;18312;51.486;7.144;2022-09-09T08:09:34;18.30;99.90
31733;DHT22;18312;51.486;7.144;2022-09-09T08:12:01;18.30;99.90
31733;DHT22;18312;51.486;7.144;2022-09-09T08:14:27;18.40;99.90
31733;DHT22;18312;51.486;7.144;2022-09-09T08:16:56;18.40;99.90
31733;DHT22;18312;51.486;7.144;2022-09-09T08:19:23;18.50;99.90
31733;DHT22;18312;51.486;7.144;2022-09-09T08:21:49;18.50;99.90
31733;DHT22;18312;51.486;7.144;2022-09-09T08:24:16;18.50;99.90
31733;DHT22;18312;51.486;7.144;2022-09-09T08:26:46;18.60;99.90
31733;DHT22;18312;51.486;7.144;2022-09-09T08:29:14;18.70;99.90
31733;DHT22;18312;51.486;7.144;2022-09-09T08:31:41;18.80;99.90
31733;DHT22;18312;51.486;7.144;2022-09-09T08:34:09;19.00;99.90
31733;DHT22;18312;51.486;7.144;2022-09-09T08:36:37;18.90;99.90
31733;DHT22;18312;51.486;7.144;2022-09-09T08:39:05;18.80;99.90
31733;DHT22;18312;51.486;7.144;2022-09-09T08:41:38;18.60;99.90
31733;DHT22;18312;51.486;7.144;2022-09-09T08:44:06;18.60;99.90
31733;DHT22;18312;51.486;7.144;2022-09-09T08:46:36;18.80;99.90
31733;DHT22;18312;51.486;7.144;2022-09-09T08:49:06;19.20;99.90
31733;DHT22;18312;51.486;7.144;2022-09-09T08:51:41;19.40;99.90
31733;DHT22;18312;51.486;7.144;2022-09-09T08:54:08;19.40;99.90
31733;DHT22;18312;51.486;7.144;2022-09-09T08:56:35;19.50;99.90
31733;DHT22;18312;51.486;7.144;2022-09-09T08:59:02;19.50;99.90
31733;DHT22;18312;51.486;7.144;2022-09-09T09:01:35;19.50;99.90
31733;DHT22;18312;51.486;7.144;2022-09-09T09:04:07;19.40;99.90
31733;DHT22;18312;51.486;7.144;2022-09-09T09:06:38;19.30;99.90
31733;DHT22;18312;51.486;7.144;2022-09-09T09:09:08;19.10;99.90
31733;DHT22;18312;51.486;7.144;2022-09-09T09:11:38;18.90;99.90
31733;DHT22;18312;51.486;7.144;2022-09-09T09:14:08;18.90;99.90
31733;DHT22;18312;51.486;7.144;2022-09-09T09:16:38;18.90;99.90
31733;DHT22;18312;51.486;7.144;2022-09-09T09:19:06;19.00;99.90
31733;DHT22;18312;51.486;7.144;2022-09-09T09:21:36;19.10;99.90
31733;DHT22;18312;51.486;7.144;2022-09-09T09:24:05;19.40;99.90
31733;DHT22;18312;51.486;7.144;2022-09-09T09:26:35;19.60;99.90
31733;DHT22;18312;51.486;7.144;2022-09-09T09:29:07;19.80;99.90
31733;DHT22;18312;51.486;7.144;2022-09-09T09:31:34;19.80;99.90
31733;DHT22;18312;51.486;7.144;2022-09-09T09:34:01;19.90;99.90
31733;DHT22;18312;51.486;7.144;2022-09-09T09:36:33;19.90;99.90
31733;DHT22;18312;51.486;7.144;2022-09-09T09:39:01;20.00;99.90
31733;DHT22;18312;51.486;7.144;2022-09-09T09:41:31;20.30;99.90
31733;DHT22;18312;51.486;7.144;2022-09-09T09:44:00;20.40;99.90
31733;DHT22;18312;51.486;7.144;2022-09-09T09:46:27;21.90;99.90
31733;DHT22;18312;51.486;7.144;2022-09-09T09:48:57;22.60;99.90
31733;DHT22;18312;51.486;7.144;2022-09-09T09:51:24;22.50;99.90
31733;DHT22;18312;51.486;7.144;2022-09-09T09:53:51;21.80;99.90
31733;DHT22;18312;51.486;7.144;2022-09-09T09:56:25;22.70;96.30
31733;DHT22;18312;51.486;7.144;2022-09-09T09:58:52;22.50;98.00
31733;DHT22;18312;51.486;7.144;2022-09-09T10:01:22;21.80;99.50
31733;DHT22;18312;51.486;7.144;2022-09-09T10:03:53;21.30;99.90
31733;DHT22;18312;51.486;7.144;2022-09-09T10:06:28;20.90;99.90
31733;DHT22;18312;51.486;7.144;2022-09-09T10:08:55;20.60;99.90
31733;DHT22;18312;51.486;7.144;2022-09-09T10:11:25;20.60;99.90
31733;DHT22;18312;51.486;7.144;2022-09-09T10:13:58;20.60;99.90
31733;DHT22;18312;51.486;7.144;2022-09-09T10:16:32;20.60;99.90
31733;DHT22;18312;51.486;7.144;2022-09-09T10:18:59;20.60;99.90
31733;DHT22;18312;51.486;7.144;2022-09-09T10:21:31;20.60;99.90
31733;DHT22;18312;51.486;7.144;2022-09-09T10:24:04;20.60;99.90
31733;DHT22;18312;51.486;7.144;2022-09-09T10:26:37;20.40;99.90
31733;DHT22;18312;51.486;7.144;2022-09-09T10:31:51;21.20;99.90
31733;DHT22;18312;51.486;7.144;2022-09-09T10:34:38;21.40;99.90
31733;DHT22;18312;51.486;7.144;2022-09-09T10:37:11;21.60;99.90
31733;DHT22;18312;51.486;7.144;2022-09-09T10:39:44;21.50;99.90
31733;DHT22;18312;51.486;7.144;2022-09-09T10:42:12;21.00;99.90
31733;DHT22;18312;51.486;7.144;2022-09-09T10:44:42;20.80;99.90
31733;DHT22;18312;51.486;7.144;2022-09-09T10:47:20;20.80;99.90
31733;DHT22;18312;51.486;7.144;2022-09-09T10:50:00;20.80;99.90
31733;DHT22;18312;51.486;7.144;2022-09-09T10:52:32;21.00;99.90
31733;DHT22;18312;51.486;7.144;2022-09-09T10:55:06;21.30;99.90
31733;DHT22;18312;51.486;7.144;2022-09-09T10:57:36;21.30;99.90
31733;DHT22;18312;51.486;7.144;2022-09-09T11:00:06;21.50;97.60
31733;DHT22;18312;51.486;7.144;2022-09-09T11:02:35;21.40;97.60
31733;DHT22;18312;51.486;7.144;2022-09-09T11:05:03;21.50;96.30
31733;DHT22;18312;51.486;7.144;2022-09-09T11:07:33;21.40;95.50
31733;DHT22;18312;51.486;7.144;2022-09-09T11:10:02;21.30;98.00
31733;DHT22;18312;51.486;7.144;2022-09-09T11:12:31;21.20;98.70
31733;DHT22;18312;51.486;7.144;2022-09-09T11:15:02;20.90;99.90
31733;DHT22;18312;51.486;7.144;2022-09-09T11:17:33;20.70;99.90
31733;DHT22;18312;51.486;7.144;2022-09-09T11:20:03;20.70;99.90
31733;DHT22;18312;51.486;7.144;2022-09-09T11:22:32;20.70;99.90
31733;DHT22;18312;51.486;7.144;2022-09-09T11:25:01;20.90;99.90
31733;DHT22;18312;51.486;7.144;2022-09-09T11:27:31;21.00;99.90
31733;DHT22;18312;51.486;7.144;2022-09-09T11:30:03;21.00;99.90
31733;DHT22;18312;51.486;7.144;2022-09-09T11:32:39;20.70;99.90
31733;DHT22;18312;51.486;7.144;2022-09-09T11:35:18;20.90;99.90
31733;DHT22;18312;51.486;7.144;2022-09-09T11:37:53;21.20;99.90
31733;DHT22;18312;51.486;7.144;2022-09-09T11:40:22;21.80;99.80
31733;DHT22;18312;51.486;7.144;2022-09-09T11:43:00;21.90;98.00
31733;DHT22;18312;51.486;7.144;2022-09-09T11:45:29;21.60;98.20
31733;DHT22;18312;51.486;7.144;2022-09-09T11:47:57;21.30;98.30
31733;DHT22;18312;51.486;7.144;2022-09-09T11:50:30;21.20;99.90
31733;DHT22;18312;51.486;7.144;2022-09-09T11:53:04;21.20;99.90
31733;DHT22;18312;51.486;7.144;2022-09-09T11:55:31;21.20;99.90
31733;DHT22;18312;51.486;7.144;2022-09-09T11:57:58;21.60;99.90
31733;DHT22;18312;51.486;7.144;2022-09-09T12:00:31;21.70;99.90
31733;DHT22;18312;51.486;7.144;2022-09-09T12:02:59;21.90;99.90
31733;DHT22;18312;51.486;7.144;2022-09-09T12:05:35;21.60;99.90
31733;DHT22;18312;51.486;7.144;2022-09-09T12:08:02;21.50;99.90
31733;DHT22;18312;51.486;7.144;2022-09-09T12:10:30;21.00;99.90
31733;DHT22;18312;51.486;7.144;2022-09-09T12:13:07;20.40;99.90
31733;DHT22;18312;51.486;7.144;2022-09-09T12:15:34;20.00;99.90
31733;DHT22;18312;51.486;7.144;2022-09-09T12:18:01;19.70;99.90
31733;DHT22;18312;51.486;7.144;2022-09-09T12:20:31;19.60;99.90
31733;DHT22;18312;51.486;7.144;2022-09-09T12:23:06;19.70;99.90
31733;DHT22;18312;51.486;7.144;2022-09-09T12:25:41;20.20;99.90
31733;DHT22;18312;51.486;7.144;2022-09-09T12:30:49;20.40;99.90
31733;DHT22;18312;51.486;7.144;2022-09-09T12:33:17;20.60;99.90
31733;DHT22;18312;51.486;7.144;2022-09-09T12:35:44;20.80;99.90
31733;DHT22;18312;51.486;7.144;2022-09-09T12:38:14;20.70;99.90
31733;DHT22;18312;51.486;7.144;2022-09-09T12:40:53;20.60;99.90
31733;DHT22;18312;51.486;7.144;2022-09-09T12:43:20;20.80;99.90
31733;DHT22;18312;51.486;7.144;2022-09-09T12:45:47;20.70;99.90
31733;DHT22;18312;51.486;7.144;2022-09-09T12:48:21;20.40;99.90
31733;DHT22;18312;51.486;7.144;2022-09-09T12:50:51;20.30;99.90
31733;DHT22;18312;51.486;7.144;2022-09-09T12:53:22;20.20;99.90
31733;DHT22;18312;51.486;7.144;2022-09-09T12:55:51;20.00;99.90
31733;DHT22;18312;51.486;7.144;2022-09-09T12:58:18;20.10;99.90
31733;DHT22;18312;51.486;7.144;2022-09-09T13:00:48;20.80;99.90
31733;DHT22;18312;51.486;7.144;2022-09-09T13:03:17;21.10;99.90
31733;DHT22;18312;51.486;7.144;2022-09-09T13:05:45;21.40;99.90
31733;DHT22;18312;51.486;7.144;2022-09-09T13:08:13;21.70;99.90
31733;DHT22;18312;51.486;7.144;2022-09-09T13:10:43;22.10;99.90
31733;DHT22;18312;51.486;7.144;2022-09-09T13:13:13;21.90;99.90
31733;DHT22;18312;51.486;7.144;2022-09-09T13:15:40;21.80;99.90
31733;DHT22;18312;51.486;7.144;2022-09-09T13:18:14;21.30;99.90
31733;DHT22;18312;51.486;7.144;2022-09-09T13:20:45;20.90;99.90
31733;DHT22;18312;51.486;7.144;2022-09-09T13:23:12;20.60;99.90
31733;DHT22;18312;51.486;7.144;2022-09-09T13:25:39;20.40;99.90
31733;DHT22;18312;51.486;7.144;2022-09-09T13:28:20;20.30;99.90
31733;DHT22;18312;51.486;7.144;2022-09-09T13:30:54;20.10;99.90
31733;DHT22;18312;51.486;7.144;2022-09-09T13:33:28;20.20;99.90
31733;DHT22;18312;51.486;7.144;2022-09-09T13:35:56;20.30;99.90
31733;DHT22;18312;51.486;7.144;2022-09-09T13:38:23;20.20;99.90
31733;DHT22;18312;51.486;7.144;2022-09-09T13:40:56;20.10;99.90
31733;DHT22;18312;51.486;7.144;2022-09-09T13:43:26;19.80;99.90
31733;DHT22;18312;51.486;7.144;2022-09-09T13:46:01;19.60;99.90
31733;DHT22;18312;51.486;7.144;2022-09-09T13:48:31;19.10;99.90
31733;DHT22;18312;51.486;7.144;2022-09-09T13:50:58;18.90;99.90
31733;DHT22;18312;51.486;7.144;2022-09-09T13:53:25;18.60;99.90
31733;DHT22;18312;51.486;7.144;2022-09-09T13:55:52;17.60;99.90
31733;DHT22;18312;51.486;7.144;2022-09-09T13:58:19;16.80;99.90
31733;DHT22;18312;51.486;7.144;2022-09-09T14:00:49;16.70;99.90
31733;DHT22;18312;51.486;7.144;2022-09-09T14:03:16;16.50;99.90
31733;DHT22;18312;51.486;7.144;2022-09-09T14:05:43;16.80;99.90
31733;DHT22;18312;51.486;7.144;2022-09-09T14:08:11;16.50;99.90
31733;DHT22;18312;51.486;7.144;2022-09-09T14:10:39;16.40;99.90
31733;DHT22;18312;51.486;7.144;2022-09-09T14:13:05;16.60;99.90
31733;DHT22;18312;51.486;7.144;2022-09-09T14:15:33;16.70;99.90
31733;DHT22;18312;51.486;7.144;2022-09-09T14:18:01;17.10;99.90
31733;DHT22;18312;51.486;7.144;2022-09-09T14:20:27;17.10;99.90
31733;DHT22;18312;51.486;7.144;2022-09-09T14:22:54;17.30;99.90
31733;DHT22;18312;51.486;7.144;2022-09-09T14:25:22;17.40;99.90
31733;DHT22;18312;51.486;7.144;2022-09-09T14:27:49;17.50;99.90
31733;DHT22;18312;51.486;7.144;2022-09-09T14:30:16;17.50;99.90
31733;DHT22;18312;51.486;7.144;2022-09-09T14:32:43;17.50;99.90
31733;DHT22;18312;51.486;7.144;2022-09-09T14:35:11;17.60;99.90
31733;DHT22;18312;51.486;7.144;2022-09-09T14:37:38;17.50;99.90
31733;DHT22;18312;51.486;7.144;2022-09-09T14:40:05;17.40;99.90
31733;DHT22;18312;51.486;7.144;2022-09-09T14:42:32;17.50;99.90
31733;DHT22;18312;51.486;7.144;2022-09-09T14:44:59;17.60;99.90
31733;DHT22;18312;51.486;7.144;2022-09-09T14:47:25;17.60;99.90
31733;DHT22;18312;51.486;7.144;2022-09-09T14:49:52;17.80;99.90
31733;DHT22;18312;51.486;7.144;2022-09-09T14:52:20;17.90;99.90
31733;DHT22;18312;51.486;7.144;2022-09-09T14:54:47;18.00;99.90
31733;DHT22;18312;51.486;7.144;2022-09-09T14:57:13;18.10;99.90
31733;DHT22;18312;51.486;7.144;2022-09-09T14:59:40;18.50;99.90
31733;DHT22;18312;51.486;7.144;2022-09-09T15:02:07;18.60;99.90
31733;DHT22;18312;51.486;7.144;2022-09-09T15:04:34;18.40;99.90
31733;DHT22;18312;51.486;7.144;2022-09-09T15:07:01;18.10;99.90
31733;DHT22;18312;51.486;7.144;2022-09-09T15:09:29;18.10;99.90
31733;DHT22;18312;51.486;7.144;2022-09-09T15:11:56;17.90;99.90
31733;DHT22;18312;51.486;7.144;2022-09-09T15:14:23;17.70;99.90
31733;DHT22;18312;51.486;7.144;2022-09-09T15:16:51;17.50;99.90
31733;DHT22;18312;51.486;7.144;2022-09-09T15:19:17;17.00;99.90
31733;DHT22;18312;51.486;7.144;2022-09-09T15:21:44;16.40;99.90
31733;DHT22;18312;51.486;7.144;2022-09-09T15:24:11;16.10;99.90
31733;DHT22;18312;51.486;7.144;2022-09-09T15:26:42;15.80;99.90
31733;DHT22;18312;51.486;7.144;2022-09-09T15:29:09;15.80;99.90
31733;DHT22;18312;51.486;7.144;2022-09-09T15:31:36;15.80;99.90
31733;DHT22;18312;51.486;7.144;2022-09-09T15:34:03;15.60;99.90
31733;DHT22;18312;51.486;7.144;2022-09-09T15:36:31;15.50;99.90
31733;DHT22;18312;51.486;7.144;2022-09-09T15:38:58;15.50;99.90
31733;DHT22;18312;51.486;7.144;2022-09-09T15:41:26;15.30;99.90
31733;DHT22;18312;51.486;7.144;2022-09-09T15:43:54;15.40;99.90
31733;DHT22;18312;51.486;7.144;2022-09-09T15:46:24;15.40;99.90